Terminal Aerodrome Forecast
Issued by NWS

Home | Current Version | Previous Version | Text Only | Print | Product List | Glossary On
Versions: 1 2 3 4 5 6 7 8 9 10 11 12
639
FTUS46 KPDT 212320
TAFPSC
TAF
KPSC 212320Z 2200/2224 36007KT P6SM SCT200
     FM220300 VRB04KT P6SM SCT200
     FM220600 VRB04KT P6SM FEW130 SCT200
     FM221800 24005KT P6SM SKC=

USA.gov is the U.S. government's official web portal to all federal, state and local government web resources and services.